sensor_id;sensor_type;location;lat;lon;timestamp;pressure;altitude;pressure_sealevel;temperature;humidity
30584;BME280;17357;59.404;18.414;2022-08-03T00:00:39;101396.97;;;23.02;63.17
30584;BME280;17357;59.404;18.414;2022-08-03T00:03:04;101388.50;;;23.02;63.18
30584;BME280;17357;59.404;18.414;2022-08-03T00:05:29;101389.25;;;22.99;62.60
30584;BME280;17357;59.404;18.414;2022-08-03T00:07:57;101380.78;;;22.99;62.61
30584;BME280;17357;59.404;18.414;2022-08-03T00:10:22;101375.84;;;22.96;62.71
30584;BME280;17357;59.404;18.414;2022-08-03T00:12:47;101372.59;;;22.94;62.80
30584;BME280;17357;59.404;18.414;2022-08-03T00:15:13;101367.75;;;22.95;62.47
30584;BME280;17357;59.404;18.414;2022-08-03T00:17:38;101358.00;;;22.92;62.97
30584;BME280;17357;59.404;18.414;2022-08-03T00:20:03;101352.81;;;22.94;62.80
30584;BME280;17357;59.404;18.414;2022-08-03T00:22:29;101361.66;;;22.92;62.51
30584;BME280;17357;59.404;18.414;2022-08-03T00:24:54;101370.50;;;22.91;62.77
30584;BME280;17357;59.404;18.414;2022-08-03T00:27:19;101369.69;;;22.90;62.83
30584;BME280;17357;59.404;18.414;2022-08-03T00:29:44;101374.53;;;22.90;62.51
30584;BME280;17357;59.404;18.414;2022-08-03T00:32:10;101367.22;;;22.89;62.49
30584;BME280;17357;59.404;18.414;2022-08-03T00:34:35;101370.50;;;22.91;62.83
30584;BME280;17357;59.404;18.414;2022-08-03T00:37:00;101367.97;;;22.86;62.80
30584;BME280;17357;59.404;18.414;2022-08-03T00:39:25;101364.34;;;22.85;62.60
30584;BME280;17357;59.404;18.414;2022-08-03T00:41:51;101362.31;;;22.86;62.76
30584;BME280;17357;59.404;18.414;2022-08-03T00:44:16;101361.50;;;22.85;62.39
30584;BME280;17357;59.404;18.414;2022-08-03T00:46:41;101371.56;;;22.83;62.27
30584;BME280;17357;59.404;18.414;2022-08-03T00:49:07;101361.44;;;22.82;62.23
30584;BME280;17357;59.404;18.414;2022-08-03T00:51:32;101365.47;;;22.81;62.19
30584;BME280;17357;59.404;18.414;2022-08-03T00:53:57;101371.84;;;22.78;62.39
30584;BME280;17357;59.404;18.414;2022-08-03T00:56:23;101373.06;;;22.77;62.10
30584;BME280;17357;59.404;18.414;2022-08-03T00:58:48;101365.38;;;22.77;62.11
30584;BME280;17357;59.404;18.414;2022-08-03T01:01:14;101369.47;;;22.80;62.39
30584;BME280;17357;59.404;18.414;2022-08-03T01:03:39;101368.22;;;22.77;62.10
30584;BME280;17357;59.404;18.414;2022-08-03T01:06:15;101377.81;;;22.73;62.34
30584;BME280;17357;59.404;18.414;2022-08-03T01:08:58;101371.72;;;22.71;61.97
30584;BME280;17357;59.404;18.414;2022-08-03T01:11:49;101374.53;;;22.71;62.26
30584;BME280;17357;59.404;18.414;2022-08-03T01:15:02;101370.97;;;22.74;62.45
30584;BME280;17357;59.404;18.414;2022-08-03T01:17:18;101375.72;;;22.70;62.40
30584;BME280;17357;59.404;18.414;2022-08-03T01:19:58;101364.88;;;22.72;62.42
30584;BME280;17357;59.404;18.414;2022-08-03T01:22:49;101373.25;;;22.68;62.25
30584;BME280;17357;59.404;18.414;2022-08-03T01:31:18;101364.78;;;22.68;62.99
30584;BME280;17357;59.404;18.414;2022-08-03T01:33:50;101362.78;;;22.69;62.81
30584;BME280;17357;59.404;18.414;2022-08-03T01:36:18;101360.75;;;22.69;63.03
30584;BME280;17357;59.404;18.414;2022-08-03T01:38:51;101365.97;;;22.67;63.24
30584;BME280;17357;59.404;18.414;2022-08-03T01:41:21;101349.00;;;22.67;63.71
30584;BME280;17357;59.404;18.414;2022-08-03T01:43:50;101350.63;;;22.68;63.78
30584;BME280;17357;59.404;18.414;2022-08-03T01:46:18;101342.16;;;22.68;64.15
30584;BME280;17357;59.404;18.414;2022-08-03T01:48:46;101334.84;;;22.67;64.08
30584;BME280;17357;59.404;18.414;2022-08-03T01:51:12;101336.50;;;22.68;64.29
30584;BME280;17357;59.404;18.414;2022-08-03T01:53:40;101334.81;;;22.64;64.63
30584;BME280;17357;59.404;18.414;2022-08-03T01:56:09;101325.44;;;22.60;64.56
30584;BME280;17357;59.404;18.414;2022-08-03T01:58:35;101332.72;;;22.61;64.15
30584;BME280;17357;59.404;18.414;2022-08-03T02:01:02;101325.00;;;22.58;63.73
30584;BME280;17357;59.404;18.414;2022-08-03T02:03:30;101337.47;;;22.57;63.78
30584;BME280;17357;59.404;18.414;2022-08-03T02:05:58;101340.81;;;22.62;65.44
30584;BME280;17357;59.404;18.414;2022-08-03T02:08:25;101338.75;;;22.78;67.51
30584;BME280;17357;59.404;18.414;2022-08-03T02:10:54;101326.75;;;22.85;68.74
30584;BME280;17357;59.404;18.414;2022-08-03T02:13:21;101341.50;;;22.94;70.11
30584;BME280;17357;59.404;18.414;2022-08-03T02:15:49;101339.53;;;22.98;71.00
30584;BME280;17357;59.404;18.414;2022-08-03T02:18:18;101332.22;;;22.97;71.18
30584;BME280;17357;59.404;18.414;2022-08-03T02:20:45;101335.06;;;22.97;69.33
30584;BME280;17357;59.404;18.414;2022-08-03T02:23:11;101335.75;;;22.90;67.72
30584;BME280;17357;59.404;18.414;2022-08-03T02:25:42;101338.00;;;22.81;66.81
30584;BME280;17357;59.404;18.414;2022-08-03T02:28:19;101327.28;;;22.71;65.93
30584;BME280;17357;59.404;18.414;2022-08-03T02:30:53;101329.66;;;22.69;65.24
30584;BME280;17357;59.404;18.414;2022-08-03T02:33:31;101320.66;;;22.64;64.96
30584;BME280;17357;59.404;18.414;2022-08-03T02:35:59;101329.56;;;22.66;64.71
30584;BME280;17357;59.404;18.414;2022-08-03T02:38:32;101318.88;;;22.56;64.38
30584;BME280;17357;59.404;18.414;2022-08-03T02:41:00;101327.50;;;22.63;64.11
30584;BME280;17357;59.404;18.414;2022-08-03T02:43:29;101327.88;;;22.61;63.84
30584;BME280;17357;59.404;18.414;2022-08-03T02:45:55;101317.69;;;22.57;63.73
30584;BME280;17357;59.404;18.414;2022-08-03T02:48:24;101319.69;;;22.56;63.48
30584;BME280;17357;59.404;18.414;2022-08-03T02:50:52;101319.19;;;22.50;63.56
30584;BME280;17357;59.404;18.414;2022-08-03T02:53:20;101315.91;;;22.48;63.34
30584;BME280;17357;59.404;18.414;2022-08-03T02:55:47;101322.00;;;22.50;63.31
30584;BME280;17357;59.404;18.414;2022-08-03T02:58:16;101320.38;;;22.49;63.16
30584;BME280;17357;59.404;18.414;2022-08-03T03:00:43;101269.88;;;22.48;62.92
30584;BME280;17357;59.404;18.414;2022-08-03T03:03:09;101262.97;;;22.45;63.02
30584;BME280;17357;59.404;18.414;2022-08-03T03:05:35;101263.47;;;22.51;63.19
30584;BME280;17357;59.404;18.414;2022-08-03T03:08:01;101336.50;;;22.49;63.09
30584;BME280;17357;59.404;18.414;2022-08-03T03:10:27;101310.66;;;22.47;63.45
30584;BME280;17357;59.404;18.414;2022-08-03T03:12:55;101294.06;;;22.45;63.18
30584;BME280;17357;59.404;18.414;2022-08-03T03:15:22;101279.03;;;22.41;63.24
30584;BME280;17357;59.404;18.414;2022-08-03T03:17:50;101288.84;;;22.47;63.13
30584;BME280;17357;59.404;18.414;2022-08-03T03:20:17;101290.03;;;22.46;63.10
30584;BME280;17357;59.404;18.414;2022-08-03T03:22:43;101283.47;;;22.42;63.40
30584;BME280;17357;59.404;18.414;2022-08-03T03:25:10;101280.28;;;22.44;63.43
30584;BME280;17357;59.404;18.414;2022-08-03T03:27:36;101283.47;;;22.42;63.49
30584;BME280;17357;59.404;18.414;2022-08-03T03:30:02;101271.81;;;22.44;63.47
30584;BME280;17357;59.404;18.414;2022-08-03T03:32:28;101271.81;;;22.44;63.61
30584;BME280;17357;59.404;18.414;2022-08-03T03:34:54;101275.00;;;22.42;64.26
30584;BME280;17357;59.404;18.414;2022-08-03T03:37:20;101267.94;;;22.52;66.77
30584;BME280;17357;59.404;18.414;2022-08-03T03:39:46;101274.25;;;22.65;69.03
30584;BME280;17357;59.404;18.414;2022-08-03T03:42:11;101286.19;;;22.77;70.71
30584;BME280;17357;59.404;18.414;2022-08-03T03:44:36;101272.16;;;22.81;72.58
30584;BME280;17357;59.404;18.414;2022-08-03T03:47:02;101279.13;;;22.87;74.42
30584;BME280;17357;59.404;18.414;2022-08-03T03:49:28;101281.25;;;22.93;75.66
30584;BME280;17357;59.404;18.414;2022-08-03T03:51:54;101273.59;;;22.94;75.68
30584;BME280;17357;59.404;18.414;2022-08-03T03:54:20;101282.38;;;22.89;73.65
30584;BME280;17357;59.404;18.414;2022-08-03T03:56:45;101279.13;;;22.87;72.43
30584;BME280;17357;59.404;18.414;2022-08-03T03:59:11;101280.94;;;22.76;71.01
30584;BME280;17357;59.404;18.414;2022-08-03T04:01:37;101273.47;;;22.68;70.07
30584;BME280;17357;59.404;18.414;2022-08-03T04:04:03;101282.19;;;22.78;69.39
30584;BME280;17357;59.404;18.414;2022-08-03T04:06:48;101274.47;;;22.98;68.10
30584;BME280;17357;59.404;18.414;2022-08-03T04:09:34;101278.84;;;23.18;67.03
30584;BME280;17357;59.404;18.414;2022-08-03T04:12:21;101275.06;;;23.33;65.93
30584;BME280;17357;59.404;18.414;2022-08-03T04:14:49;101259.59;;;23.50;65.00
30584;BME280;17357;59.404;18.414;2022-08-03T04:17:15;101275.53;;;23.62;64.06
30584;BME280;17357;59.404;18.414;2022-08-03T04:19:48;101276.50;;;23.73;63.83
30584;BME280;17357;59.404;18.414;2022-08-03T04:22:18;101270.16;;;23.83;63.62
30584;BME280;17357;59.404;18.414;2022-08-03T04:24:54;101282.03;;;23.92;63.16
30584;BME280;17357;59.404;18.414;2022-08-03T04:27:26;101282.56;;;24.01;63.08
30584;BME280;17357;59.404;18.414;2022-08-03T04:29:54;101277.44;;;24.10;63.06
30584;BME280;17357;59.404;18.414;2022-08-03T04:32:21;101287.59;;;24.15;63.27
30584;BME280;17357;59.404;18.414;2022-08-03T04:34:49;101280.84;;;24.23;63.09
30584;BME280;17357;59.404;18.414;2022-08-03T04:37:23;101279.25;;;24.26;63.14
30584;BME280;17357;59.404;18.414;2022-08-03T04:39:52;101280.16;;;24.33;63.33
30584;BME280;17357;59.404;18.414;2022-08-03T04:42:19;101272.13;;;24.39;63.36
30584;BME280;17357;59.404;18.414;2022-08-03T04:44:47;101277.00;;;24.42;63.88
30584;BME280;17357;59.404;18.414;2022-08-03T04:47:12;101278.28;;;24.44;63.97
30584;BME280;17357;59.404;18.414;2022-08-03T04:49:38;101279.56;;;24.50;64.13
30584;BME280;17357;59.404;18.414;2022-08-03T04:52:06;101279.16;;;24.52;64.29
30584;BME280;17357;59.404;18.414;2022-08-03T04:54:38;101273.09;;;24.53;63.75
30584;BME280;17357;59.404;18.414;2022-08-03T04:57:04;101269.88;;;24.55;63.75
30584;BME280;17357;59.404;18.414;2022-08-03T04:59:29;101278.84;;;24.61;63.51
30584;BME280;17357;59.404;18.414;2022-08-03T05:01:54;101280.47;;;24.62;63.63
30584;BME280;17357;59.404;18.414;2022-08-03T05:04:20;101284.16;;;24.66;63.60
30584;BME280;17357;59.404;18.414;2022-08-03T05:06:46;101284.22;;;24.69;63.80
30584;BME280;17357;59.404;18.414;2022-08-03T05:09:12;101274.47;;;24.67;63.52
30584;BME280;17357;59.404;18.414;2022-08-03T05:11:37;101268.00;;;24.70;63.61
30584;BME280;17357;59.404;18.414;2022-08-03T05:14:02;101275.31;;;24.71;63.73
30584;BME280;17357;59.404;18.414;2022-08-03T05:16:28;101279.38;;;24.73;64.13
30584;BME280;17357;59.404;18.414;2022-08-03T05:18:53;101278.59;;;24.76;64.12
30584;BME280;17357;59.404;18.414;2022-08-03T05:21:18;101272.16;;;24.79;63.85
30584;BME280;17357;59.404;18.414;2022-08-03T05:23:43;101275.41;;;24.81;64.30
30584;BME280;17357;59.404;18.414;2022-08-03T05:26:09;101272.56;;;24.81;64.07
30584;BME280;17357;59.404;18.414;2022-08-03T05:28:38;101275.06;;;24.86;64.42
30584;BME280;17357;59.404;18.414;2022-08-03T05:31:03;101272.66;;;24.88;64.43
30584;BME280;17357;59.404;18.414;2022-08-03T05:33:29;101270.59;;;24.85;64.67
30584;BME280;17357;59.404;18.414;2022-08-03T05:35:54;101271.47;;;24.89;64.48
30584;BME280;17357;59.404;18.414;2022-08-03T05:38:19;101272.31;;;24.93;64.56
30584;BME280;17357;59.404;18.414;2022-08-03T05:40:44;101279.25;;;24.96;65.02
30584;BME280;17357;59.404;18.414;2022-08-03T05:43:10;101269.91;;;24.95;65.00
30584;BME280;17357;59.404;18.414;2022-08-03T05:45:35;101266.25;;;24.95;65.12
30584;BME280;17357;59.404;18.414;2022-08-03T05:48:01;101278.84;;;24.98;65.18
30584;BME280;17357;59.404;18.414;2022-08-03T05:50:26;101268.28;;;24.94;65.28
30584;BME280;17357;59.404;18.414;2022-08-03T05:52:54;101276.84;;;24.98;65.20
30584;BME280;17357;59.404;18.414;2022-08-03T05:55:20;101276.41;;;25.00;65.14
30584;BME280;17357;59.404;18.414;2022-08-03T05:57:45;101261.41;;;24.95;65.82
30584;BME280;17357;59.404;18.414;2022-08-03T06:00:11;101273.19;;;25.01;66.20
30584;BME280;17357;59.404;18.414;2022-08-03T06:02:37;101278.91;;;25.05;66.49
30584;BME280;17357;59.404;18.414;2022-08-03T06:05:03;101275.28;;;25.08;66.50
30584;BME280;17357;59.404;18.414;2022-08-03T06:07:29;101282.59;;;25.09;66.54
30584;BME280;17357;59.404;18.414;2022-08-03T06:09:54;101265.16;;;25.10;66.54
30584;BME280;17357;59.404;18.414;2022-08-03T06:12:19;101262.72;;;25.09;66.22
30584;BME280;17357;59.404;18.414;2022-08-03T06:14:45;101261.09;;;25.08;65.88
30584;BME280;17357;59.404;18.414;2022-08-03T06:17:10;101274.84;;;25.06;65.73
30584;BME280;17357;59.404;18.414;2022-08-03T06:19:36;101273.66;;;25.10;65.44
30584;BME280;17357;59.404;18.414;2022-08-03T06:22:01;101248.94;;;25.11;65.11
30584;BME280;17357;59.404;18.414;2022-08-03T06:24:26;101278.13;;;25.08;64.83
30584;BME280;17357;59.404;18.414;2022-08-03T06:26:51;101272.88;;;25.10;65.00
30584;BME280;17357;59.404;18.414;2022-08-03T06:29:17;101280.16;;;25.11;64.99
30584;BME280;17357;59.404;18.414;2022-08-03T06:31:42;101275.31;;;25.11;64.77
30584;BME280;17357;59.404;18.414;2022-08-03T06:34:07;101267.66;;;25.15;64.96
30584;BME280;17357;59.404;18.414;2022-08-03T06:36:32;101276.56;;;25.14;64.89
30584;BME280;17357;59.404;18.414;2022-08-03T06:38:58;101276.13;;;25.12;64.91
30584;BME280;17357;59.404;18.414;2022-08-03T06:41:24;101270.06;;;25.13;65.15
30584;BME280;17357;59.404;18.414;2022-08-03T06:43:50;101275.34;;;25.15;65.32
30584;BME280;17357;59.404;18.414;2022-08-03T06:46:15;101297.69;;;25.20;65.14
30584;BME280;17357;59.404;18.414;2022-08-03T06:48:41;101290.38;;;25.19;65.15
30584;BME280;17357;59.404;18.414;2022-08-03T06:51:06;101291.59;;;25.18;64.98
30584;BME280;17357;59.404;18.414;2022-08-03T06:53:31;101287.53;;;25.19;64.46
30584;BME280;17357;59.404;18.414;2022-08-03T06:55:56;101291.97;;;25.16;64.45
30584;BME280;17357;59.404;18.414;2022-08-03T06:58:22;101304.56;;;25.15;64.15
30584;BME280;17357;59.404;18.414;2022-08-03T07:00:47;101300.50;;;25.16;63.66
30584;BME280;17357;59.404;18.414;2022-08-03T07:03:12;101298.88;;;25.15;63.68
30584;BME280;17357;59.404;18.414;2022-08-03T07:05:39;101298.88;;;25.15;63.89
30584;BME280;17357;59.404;18.414;2022-08-03T07:08:05;101291.19;;;25.16;63.85
30584;BME280;17357;59.404;18.414;2022-08-03T07:10:31;101280.59;;;25.13;64.01
30584;BME280;17357;59.404;18.414;2022-08-03T07:12:57;101287.09;;;25.13;64.03
30584;BME280;17357;59.404;18.414;2022-08-03T07:15:22;101291.59;;;25.18;64.00
30584;BME280;17357;59.404;18.414;2022-08-03T07:17:48;101287.91;;;25.14;63.94
30584;BME280;17357;59.404;18.414;2022-08-03T07:20:13;101274.16;;;25.16;64.22
30584;BME280;17357;59.404;18.414;2022-08-03T07:22:39;101277.31;;;25.11;64.41
30584;BME280;17357;59.404;18.414;2022-08-03T07:25:04;101272.53;;;25.15;64.38
30584;BME280;17357;59.404;18.414;2022-08-03T07:27:30;101278.22;;;25.22;64.50
30584;BME280;17357;59.404;18.414;2022-08-03T07:29:56;101269.72;;;25.22;64.55
30584;BME280;17357;59.404;18.414;2022-08-03T07:32:23;101266.03;;;25.18;64.61
30584;BME280;17357;59.404;18.414;2022-08-03T07:34:48;101268.50;;;25.23;64.71
30584;BME280;17357;59.404;18.414;2022-08-03T07:37:14;101266.84;;;25.18;65.03
30584;BME280;17357;59.404;18.414;2022-08-03T07:39:39;101264.84;;;25.19;64.91
30584;BME280;17357;59.404;18.414;2022-08-03T07:42:04;101268.50;;;25.19;65.23
30584;BME280;17357;59.404;18.414;2022-08-03T07:44:30;101266.09;;;25.21;65.30
30584;BME280;17357;59.404;18.414;2022-08-03T07:46:55;101263.69;;;25.27;65.07
30584;BME280;17357;59.404;18.414;2022-08-03T07:49:21;101267.75;;;25.26;65.19
30584;BME280;17357;59.404;18.414;2022-08-03T07:51:46;101262.06;;;25.26;65.53
30584;BME280;17357;59.404;18.414;2022-08-03T07:54:31;101264.09;;;25.25;65.94
30584;BME280;17357;59.404;18.414;2022-08-03T07:56:57;101260.44;;;25.25;66.61
30584;BME280;17357;59.404;18.414;2022-08-03T07:59:22;101257.59;;;25.25;66.68
30584;BME280;17357;59.404;18.414;2022-08-03T08:01:47;101253.56;;;25.29;66.53
30584;BME280;17357;59.404;18.414;2022-08-03T08:04:12;101267.34;;;25.27;66.65
30584;BME280;17357;59.404;18.414;2022-08-03T08:06:38;101266.13;;;25.28;66.43
30584;BME280;17357;59.404;18.414;2022-08-03T08:09:03;101270.19;;;25.27;65.97
30584;BME280;17357;59.404;18.414;2022-08-03T08:11:28;101270.56;;;25.26;65.76
30584;BME280;17357;59.404;18.414;2022-08-03T08:13:54;101264.91;;;25.26;65.54
30584;BME280;17357;59.404;18.414;2022-08-03T08:16:19;101266.09;;;25.25;65.13
30584;BME280;17357;59.404;18.414;2022-08-03T08:18:44;101263.25;;;25.25;65.02
30584;BME280;17357;59.404;18.414;2022-08-03T08:21:09;101271.78;;;25.25;64.43
30584;BME280;17357;59.404;18.414;2022-08-03T08:23:35;101272.56;;;25.22;64.58
30584;BME280;17357;59.404;18.414;2022-08-03T08:26:00;101270.97;;;25.24;64.60
30584;BME280;17357;59.404;18.414;2022-08-03T08:28:25;101277.47;;;25.25;64.50
30584;BME280;17357;59.404;18.414;2022-08-03T08:30:50;101273.41;;;25.26;64.43
30584;BME280;17357;59.404;18.414;2022-08-03T08:33:16;101271.78;;;25.25;64.43
30584;BME280;17357;59.404;18.414;2022-08-03T08:35:41;101271.78;;;25.25;64.70
30584;BME280;17357;59.404;18.414;2022-08-03T08:38:06;101271.78;;;25.28;64.75
30584;BME280;17357;59.404;18.414;2022-08-03T08:40:31;101270.97;;;25.28;64.78
30584;BME280;17357;59.404;18.414;2022-08-03T08:42:57;101279.50;;;25.28;64.83
30584;BME280;17357;59.404;18.414;2022-08-03T08:45:23;101270.22;;;25.31;64.84
30584;BME280;17357;59.404;18.414;2022-08-03T08:47:49;101271.78;;;25.28;65.13
30584;BME280;17357;59.404;18.414;2022-08-03T08:50:19;101277.09;;;25.30;65.23
30584;BME280;17357;59.404;18.414;2022-08-03T08:52:46;101267.38;;;25.31;65.11
30584;BME280;17357;59.404;18.414;2022-08-03T08:55:14;101258.41;;;25.29;64.98
30584;BME280;17357;59.404;18.414;2022-08-03T08:57:48;101265.72;;;25.30;64.94
30584;BME280;17357;59.404;18.414;2022-08-03T09:00:15;101262.13;;;25.33;65.04
30584;BME280;17357;59.404;18.414;2022-08-03T09:02:41;101249.50;;;25.30;64.60
30584;BME280;17357;59.404;18.414;2022-08-03T09:05:12;101255.19;;;25.27;64.62
30584;BME280;17357;59.404;18.414;2022-08-03T09:07:38;101249.50;;;25.27;64.68
30584;BME280;17357;59.404;18.414;2022-08-03T09:10:05;101248.69;;;25.30;64.65
30584;BME280;17357;59.404;18.414;2022-08-03T09:12:41;101249.09;;;25.28;64.60
30584;BME280;17357;59.404;18.414;2022-08-03T09:17:41;101249.16;;;25.35;63.55
30584;BME280;17357;59.404;18.414;2022-08-03T09:20:07;101254.06;;;25.39;62.78
30584;BME280;17357;59.404;18.414;2022-08-03T09:22:33;101249.97;;;25.36;63.94
30584;BME280;17357;59.404;18.414;2022-08-03T09:25:01;101254.06;;;25.42;64.32
30584;BME280;17357;59.404;18.414;2022-08-03T09:27:27;101253.25;;;25.45;65.02
30584;BME280;17357;59.404;18.414;2022-08-03T09:29:53;101251.22;;;25.42;65.08
30584;BME280;17357;59.404;18.414;2022-08-03T09:32:20;101262.59;;;25.42;65.12
30584;BME280;17357;59.404;18.414;2022-08-03T09:34:47;101264.66;;;25.49;65.50
30584;BME280;17357;59.404;18.414;2022-08-03T09:37:14;101263.00;;;25.44;65.66
30584;BME280;17357;59.404;18.414;2022-08-03T09:39:40;101261.00;;;25.45;65.76
30584;BME280;17357;59.404;18.414;2022-08-03T09:44:35;101271.09;;;25.42;65.76
30584;BME280;17357;59.404;18.414;2022-08-03T09:47:02;101265.84;;;25.44;65.54
30584;BME280;17357;59.404;18.414;2022-08-03T09:49:27;101270.28;;;25.45;65.38
30584;BME280;17357;59.404;18.414;2022-08-03T09:51:53;101267.06;;;25.43;65.52
30584;BME280;17357;59.404;18.414;2022-08-03T09:54:28;101265.03;;;25.44;65.36
30584;BME280;17357;59.404;18.414;2022-08-03T09:56:55;101256.50;;;25.44;65.90
30584;BME280;17357;59.404;18.414;2022-08-03T09:59:30;101267.06;;;25.43;66.27
30584;BME280;17357;59.404;18.414;2022-08-03T10:01:57;101259.38;;;25.47;66.28
30584;BME280;17357;59.404;18.414;2022-08-03T10:04:24;101260.63;;;25.50;65.98
30584;BME280;17357;59.404;18.414;2022-08-03T10:07:08;101256.91;;;25.42;65.94
30584;BME280;17357;59.404;18.414;2022-08-03T10:09:35;101258.94;;;25.45;65.39
30584;BME280;17357;59.404;18.414;2022-08-03T10:12:09;101251.22;;;25.42;65.20
30584;BME280;17357;59.404;18.414;2022-08-03T10:14:37;101243.50;;;25.39;64.86
30584;BME280;17357;59.404;18.414;2022-08-03T10:17:03;101250.41;;;25.45;64.59
30584;BME280;17357;59.404;18.414;2022-08-03T10:19:28;101247.56;;;25.45;64.34
30584;BME280;17357;59.404;18.414;2022-08-03T10:22:02;101235.00;;;25.43;64.05
30584;BME280;17357;59.404;18.414;2022-08-03T10:24:29;101236.22;;;25.42;64.04
30584;BME280;17357;59.404;18.414;2022-08-03T10:27:08;101246.38;;;25.43;63.99
30584;BME280;17357;59.404;18.414;2022-08-03T10:29:41;101248.38;;;25.42;63.77
30584;BME280;17357;59.404;18.414;2022-08-03T10:32:12;101235.81;;;25.43;63.70
30584;BME280;17357;59.404;18.414;2022-08-03T10:34:43;101240.28;;;25.44;63.76
30584;BME280;17357;59.404;18.414;2022-08-03T10:37:10;101238.66;;;25.47;63.71
30584;BME280;17357;59.404;18.414;2022-08-03T10:39:37;101240.69;;;25.46;63.58
30584;BME280;17357;59.404;18.414;2022-08-03T10:42:17;101226.81;;;25.30;64.30
30584;BME280;17357;59.404;18.414;2022-08-03T10:44:42;101224.41;;;25.40;64.11
30584;BME280;17357;59.404;18.414;2022-08-03T10:47:08;101223.25;;;25.44;64.11
30584;BME280;17357;59.404;18.414;2022-08-03T10:49:34;101228.16;;;25.51;63.95
30584;BME280;17357;59.404;18.414;2022-08-03T10:52:00;101232.59;;;25.52;63.86
30584;BME280;17357;59.404;18.414;2022-08-03T10:54:39;101224.84;;;25.45;63.70
30584;BME280;17357;59.404;18.414;2022-08-03T10:57:47;101236.22;;;25.42;63.83
30584;BME280;17357;59.404;18.414;2022-08-03T11:00:15;101220.44;;;25.48;63.71
30584;BME280;17357;59.404;18.414;2022-08-03T11:05:35;101237.06;;;25.49;63.41
30584;BME280;17357;59.404;18.414;2022-08-03T11:08:32;101241.91;;;25.45;63.31
30584;BME280;17357;59.404;18.414;2022-08-03T11:14:12;101235.44;;;25.48;63.14
30584;BME280;17357;59.404;18.414;2022-08-03T11:16:41;101249.25;;;25.50;63.35
30584;BME280;17357;59.404;18.414;2022-08-03T11:19:11;101251.28;;;25.53;63.41
30584;BME280;17357;59.404;18.414;2022-08-03T11:35:30;101248.44;;;25.49;63.88
30584;BME280;17357;59.404;18.414;2022-08-03T11:40:43;101237.91;;;25.50;64.11
30584;BME280;17357;59.404;18.414;2022-08-03T11:48:21;101223.31;;;25.55;63.93
30584;BME280;17357;59.404;18.414;2022-08-03T11:50:47;101218.84;;;25.54;64.05
30584;BME280;17357;59.404;18.414;2022-08-03T11:53:17;101227.34;;;25.50;64.22
30584;BME280;17357;59.404;18.414;2022-08-03T11:55:44;101219.66;;;25.54;64.44
30584;BME280;17357;59.404;18.414;2022-08-03T11:58:17;101214.34;;;25.49;64.66
30584;BME280;17357;59.404;18.414;2022-08-03T12:00:43;101214.38;;;25.53;65.18
30584;BME280;17357;59.404;18.414;2022-08-03T12:03:12;101211.13;;;25.51;64.85
30584;BME280;17357;59.404;18.414;2022-08-03T12:05:42;101206.22;;;25.48;64.55
30584;BME280;17357;59.404;18.414;2022-08-03T12:08:09;101218.84;;;25.50;64.58
30584;BME280;17357;59.404;18.414;2022-08-03T12:10:36;101211.50;;;25.49;64.14
30584;BME280;17357;59.404;18.414;2022-08-03T12:13:03;101216.00;;;25.50;63.76
30584;BME280;17357;59.404;18.414;2022-08-03T12:15:31;101207.06;;;25.52;63.65
30584;BME280;17357;59.404;18.414;2022-08-03T12:18:01;101213.53;;;25.52;63.33
30584;BME280;17357;59.404;18.414;2022-08-03T12:20:29;101209.50;;;25.53;63.13
30584;BME280;17357;59.404;18.414;2022-08-03T12:23:01;101203.38;;;25.51;63.17
30584;BME280;17357;59.404;18.414;2022-08-03T12:25:28;101197.31;;;25.53;63.06
30584;BME280;17357;59.404;18.414;2022-08-03T12:28:08;101190.00;;;25.48;63.11
30584;BME280;17357;59.404;18.414;2022-08-03T12:30:34;101198.53;;;25.52;63.03
30584;BME280;17357;59.404;18.414;2022-08-03T12:33:22;101200.97;;;25.50;63.04
30584;BME280;17357;59.404;18.414;2022-08-03T12:35:50;101192.50;;;25.57;63.02
30584;BME280;17357;59.404;18.414;2022-08-03T12:38:26;101205.47;;;25.54;63.18
30584;BME280;17357;59.404;18.414;2022-08-03T12:41:05;101192.84;;;25.48;63.27
30584;BME280;17357;59.404;18.414;2022-08-03T12:43:31;101194.09;;;25.54;63.48
30584;BME280;17357;59.404;18.414;2022-08-03T12:46:29;101199.72;;;25.47;63.45
30584;BME280;17357;59.404;18.414;2022-08-03T12:51:23;101189.22;;;25.55;63.20
30584;BME280;17357;59.404;18.414;2022-08-03T12:53:55;101195.72;;;25.55;62.92
30584;BME280;17357;59.404;18.414;2022-08-03T12:56:21;101193.66;;;25.52;62.88
30584;BME280;17357;59.404;18.414;2022-08-03T12:58:46;101206.28;;;25.55;62.91
30584;BME280;17357;59.404;18.414;2022-08-03T13:01:12;101211.94;;;25.55;62.88
30584;BME280;17357;59.404;18.414;2022-08-03T13:03:47;101205.47;;;25.54;62.71
30584;BME280;17357;59.404;18.414;2022-08-03T13:06:14;101204.25;;;25.55;62.93
30584;BME280;17357;59.404;18.414;2022-08-03T13:08:41;101207.91;;;25.56;62.79
30584;BME280;17357;59.404;18.414;2022-08-03T13:11:25;101205.47;;;25.54;62.90
30584;BME280;17357;59.404;18.414;2022-08-03T13:13:51;101199.81;;;25.58;63.06
30584;BME280;17357;59.404;18.414;2022-08-03T13:16:17;101199.81;;;25.58;62.99
30584;BME280;17357;59.404;18.414;2022-08-03T13:18:42;101207.09;;;25.55;63.36
30584;BME280;17357;59.404;18.414;2022-08-03T13:21:11;101215.25;;;25.60;63.38
30584;BME280;17357;59.404;18.414;2022-08-03T13:23:36;101207.16;;;25.62;63.40
30584;BME280;17357;59.404;18.414;2022-08-03T13:26:01;101213.63;;;25.63;63.25